createdAt,value
2022-11-29T00:01:12.269Z,35.87
2022-11-29T00:03:40.245Z,35.63
2022-11-29T00:06:10.672Z,40.50
2022-11-29T00:08:39.022Z,39.23
2022-11-29T00:11:07.521Z,41.63
2022-11-29T00:13:35.663Z,37.37
2022-11-29T00:16:06.912Z,38.87
2022-11-29T00:18:34.993Z,38.40
2022-11-29T00:21:07.244Z,41.17
2022-11-29T00:23:35.444Z,40.87
2022-11-29T00:26:07.607Z,38.30
2022-11-29T00:28:36.793Z,37.57
2022-11-29T00:31:16.302Z,42.20
2022-11-29T00:33:44.102Z,43.93
2022-11-29T00:36:12.240Z,38.63
2022-11-29T00:38:40.393Z,37.77
2022-11-29T00:41:08.616Z,36.97
2022-11-29T00:43:36.552Z,39.77
2022-11-29T00:46:05.054Z,41.30
2022-11-29T00:48:34.362Z,36.30
2022-11-29T00:51:02.389Z,36.00
2022-11-29T00:53:32.970Z,36.17
2022-11-29T00:56:00.704Z,38.37
2022-11-29T00:58:28.540Z,40.33
2022-11-29T01:00:57.122Z,40.10
2022-11-29T01:03:25.659Z,37.63
2022-11-29T01:06:00.920Z,33.90
2022-11-29T01:08:28.917Z,36.37
2022-11-29T01:11:03.891Z,35.87
2022-11-29T01:13:31.642Z,37.23
2022-11-29T01:15:59.726Z,37.03
2022-11-29T01:18:27.522Z,37.87
2022-11-29T01:21:01.952Z,39.53
2022-11-29T01:23:30.138Z,40.57
2022-11-29T01:25:59.847Z,34.60
2022-11-29T01:28:28.605Z,37.63
2022-11-29T01:30:56.470Z,38.00
2022-11-29T01:33:24.301Z,38.80
2022-11-29T01:35:53.474Z,35.57
2022-11-29T01:38:23.694Z,39.87
2022-11-29T01:40:59.820Z,37.77
2022-11-29T01:43:27.975Z,33.87
2022-11-29T01:45:55.955Z,36.33
2022-11-29T01:48:27.150Z,34.63
2022-11-29T01:50:56.282Z,37.73
2022-11-29T01:53:25.422Z,36.30
2022-11-29T01:55:57.547Z,37.33
2022-11-29T01:58:25.490Z,39.33
2022-11-29T02:00:53.434Z,38.40
2022-11-29T02:03:21.211Z,36.07
2022-11-29T02:05:51.459Z,39.73
2022-11-29T02:08:26.175Z,38.37
2022-11-29T02:11:16.811Z,38.37
2022-11-29T02:13:54.638Z,38.43
2022-11-29T02:16:29.050Z,36.83
2022-11-29T02:19:11.122Z,40.97
2022-11-29T02:21:47.564Z,42.30
2022-11-29T02:24:47.727Z,34.73
2022-11-29T02:27:45.845Z,36.60
2022-11-29T02:30:34.668Z,41.10
2022-11-29T02:33:43.902Z,40.80
2022-11-29T02:36:34.081Z,39.37
2022-11-29T02:39:18.883Z,40.57
2022-11-29T02:42:22.288Z,40.73
2022-11-29T02:45:08.788Z,39.53
2022-11-29T02:47:53.226Z,44.77
2022-11-29T02:50:35.580Z,40.93
2022-11-29T02:53:11.501Z,41.70
2022-11-29T02:55:47.587Z,39.67
2022-11-29T02:58:24.340Z,44.07
2022-11-29T03:01:00.644Z,39.57
2022-11-29T03:03:36.669Z,41.73
2022-11-29T03:06:13.037Z,40.17
2022-11-29T03:08:51.546Z,44.93
2022-11-29T03:11:29.301Z,43.63
2022-11-29T03:14:12.939Z,46.53
2022-11-29T03:16:47.853Z,40.70
2022-11-29T03:19:36.174Z,47.13
2022-11-29T03:22:13.030Z,42.93
2022-11-29T03:24:48.886Z,51.03
2022-11-29T03:27:22.967Z,46.60
2022-11-29T03:29:57.832Z,44.10
2022-11-29T03:32:31.670Z,49.33
2022-11-29T03:35:05.679Z,45.63
2022-11-29T03:37:42.936Z,47.30
2022-11-29T03:40:15.646Z,43.43
2022-11-29T03:42:51.003Z,42.03
2022-11-29T03:45:25.909Z,50.57
2022-11-29T03:48:01.002Z,43.63
2022-11-29T03:50:35.673Z,48.33
2022-11-29T03:53:15.608Z,49.30
2022-11-29T03:55:54.776Z,45.70
2022-11-29T03:58:35.613Z,48.47
2022-11-29T04:01:30.391Z,53.00
2022-11-29T04:04:26.539Z,46.17
2022-11-29T04:07:09.818Z,48.43
2022-11-29T04:09:58.176Z,52.03
2022-11-29T04:12:44.477Z,49.40
2022-11-29T04:15:45.503Z,50.20
2022-11-29T04:18:59.997Z,51.07
2022-11-29T04:21:34.717Z,53.33
2022-11-29T04:24:34.759Z,55.47
2022-11-29T04:27:38.844Z,51.37
2022-11-29T04:30:19.880Z,53.03
2022-11-29T04:33:18.143Z,51.87
2022-11-29T04:36:28.615Z,48.80
2022-11-29T04:39:30.439Z,50.00
2022-11-29T04:42:27.876Z,55.57
2022-11-29T04:45:13.742Z,56.37
2022-11-29T04:47:56.772Z,54.77
2022-11-29T04:50:35.052Z,50.90
2022-11-29T04:53:25.327Z,47.73
2022-11-29T04:56:02.308Z,49.67
2022-11-29T04:58:37.846Z,53.53
2022-11-29T05:01:19.253Z,54.90
2022-11-29T05:03:57.258Z,52.73
2022-11-29T05:06:33.632Z,54.80
2022-11-29T05:09:07.105Z,48.20
2022-11-29T05:11:51.153Z,53.40
2022-11-29T05:14:34.371Z,56.10
2022-11-29T05:17:17.768Z,52.53
2022-11-29T05:19:59.490Z,55.70
2022-11-29T05:22:36.704Z,55.10
2022-11-29T05:25:23.118Z,56.73
2022-11-29T05:27:57.868Z,59.63
2022-11-29T05:30:31.690Z,53.53
2022-11-29T05:33:10.723Z,53.17
2022-11-29T05:35:55.763Z,58.43
2022-11-29T05:38:38.591Z,53.17
2022-11-29T05:41:21.219Z,48.90
2022-11-29T05:44:00.862Z,54.20
2022-11-29T05:46:33.144Z,52.20
2022-11-29T05:49:16.568Z,55.97
2022-11-29T05:51:54.494Z,55.23
2022-11-29T05:54:30.615Z,59.27
2022-11-29T05:57:12.576Z,55.67
2022-11-29T05:59:42.407Z,58.53
2022-11-29T06:02:24.055Z,54.37
2022-11-29T06:05:06.473Z,56.20
2022-11-29T06:07:42.545Z,64.67
2022-11-29T06:10:13.527Z,61.80
2022-11-29T06:12:44.567Z,58.90
2022-11-29T06:15:31.810Z,62.40
2022-11-29T06:18:19.103Z,56.67
2022-11-29T06:21:02.568Z,64.57
2022-11-29T06:24:09.730Z,59.47
2022-11-29T06:27:08.154Z,60.70
2022-11-29T06:29:43.304Z,61.83
2022-11-29T06:32:21.859Z,68.33
2022-11-29T06:34:58.965Z,58.57
2022-11-29T06:37:30.830Z,65.80
2022-11-29T06:40:00.508Z,63.87
2022-11-29T06:42:28.221Z,63.40
2022-11-29T06:44:56.600Z,63.23
2022-11-29T06:47:29.349Z,66.13
2022-11-29T06:50:02.511Z,58.37
2022-11-29T06:52:38.676Z,59.20
2022-11-29T06:55:23.677Z,63.07
2022-11-29T06:58:04.181Z,65.63
2022-11-29T07:00:41.155Z,61.33
2022-11-29T07:03:33.742Z,63.33
2022-11-29T07:06:09.753Z,63.00
2022-11-29T07:08:38.080Z,63.90
2022-11-29T07:11:08.154Z,66.63
2022-11-29T07:13:38.321Z,63.27
2022-11-29T07:16:15.048Z,61.90
2022-11-29T07:18:52.157Z,67.40
2022-11-29T07:21:28.787Z,63.53
2022-11-29T07:24:08.612Z,63.70
2022-11-29T07:26:47.371Z,62.30
2022-11-29T07:29:25.623Z,63.00
2022-11-29T07:32:04.381Z,64.73
2022-11-29T07:34:41.312Z,60.13
2022-11-29T07:37:20.717Z,72.23
2022-11-29T07:40:00.196Z,63.40
2022-11-29T07:42:37.446Z,64.37
2022-11-29T07:45:17.674Z,60.33
2022-11-29T07:47:46.259Z,68.60
2022-11-29T07:50:14.481Z,61.33
2022-11-29T07:52:42.370Z,65.97
2022-11-29T07:55:18.435Z,67.23
2022-11-29T07:57:48.663Z,61.23
2022-11-29T08:00:17.582Z,67.87
2022-11-29T08:02:45.321Z,62.20
2022-11-29T08:05:13.531Z,66.47
2022-11-29T08:07:42.277Z,66.23
2022-11-29T08:10:12.518Z,60.33
2022-11-29T08:12:43.932Z,71.43
2022-11-29T08:15:13.626Z,65.40
2022-11-29T08:17:41.628Z,63.80
2022-11-29T08:20:10.903Z,62.40
2022-11-29T08:22:38.895Z,67.03
2022-11-29T08:25:08.531Z,61.73
2022-11-29T08:27:37.043Z,60.03
2022-11-29T08:30:05.678Z,67.73
2022-11-29T08:32:35.448Z,65.70
2022-11-29T08:35:03.284Z,65.97
2022-11-29T08:37:31.055Z,66.50
2022-11-29T08:39:58.993Z,70.37
2022-11-29T08:42:27.020Z,72.47
2022-11-29T08:44:55.004Z,66.97
2022-11-29T08:47:37.762Z,66.83
2022-11-29T08:50:12.133Z,67.43
2022-11-29T08:52:59.966Z,64.70
2022-11-29T08:55:31.686Z,68.33
2022-11-29T08:58:03.795Z,66.70
2022-11-29T09:00:32.006Z,69.00
2022-11-29T09:03:20.158Z,62.50
2022-11-29T09:05:49.355Z,64.40
2022-11-29T09:08:17.265Z,65.43
2022-11-29T09:10:45.476Z,63.67
2022-11-29T09:13:13.677Z,62.80
2022-11-29T09:15:43.584Z,61.77
2022-11-29T09:18:11.654Z,66.03
2022-11-29T09:20:39.437Z,66.70
2022-11-29T09:23:08.543Z,65.30
2022-11-29T09:25:36.240Z,63.10
2022-11-29T09:28:04.003Z,63.37
2022-11-29T09:30:31.947Z,61.30
2022-11-29T09:33:00.531Z,63.47
2022-11-29T09:35:28.284Z,64.10
2022-11-29T09:37:56.039Z,62.27
2022-11-29T09:40:32.937Z,62.73
2022-11-29T09:43:07.412Z,64.03
2022-11-29T09:45:40.464Z,61.27
2022-11-29T09:48:32.931Z,61.03
2022-11-29T09:51:15.191Z,61.90
2022-11-29T09:53:59.387Z,58.60
2022-11-29T09:56:35.592Z,58.90
2022-11-29T09:59:07.121Z,62.37
2022-11-29T10:01:39.597Z,57.57
2022-11-29T10:04:13.816Z,60.90
2022-11-29T10:06:46.909Z,58.47
2022-11-29T10:09:18.834Z,62.50
2022-11-29T10:12:00.970Z,63.03
2022-11-29T10:14:34.755Z,59.77
2022-11-29T10:17:12.455Z,60.97
2022-11-29T10:19:45.534Z,59.23
2022-11-29T10:22:19.815Z,59.37
2022-11-29T10:24:50.992Z,53.33
2022-11-29T10:27:23.703Z,55.50
2022-11-29T10:29:51.927Z,55.23
2022-11-29T10:32:21.585Z,58.73
2022-11-29T10:34:50.173Z,57.80
2022-11-29T10:37:20.495Z,58.07
2022-11-29T10:39:50.538Z,58.07
2022-11-29T10:42:39.480Z,56.67
2022-11-29T10:45:16.615Z,53.93
2022-11-29T10:47:47.096Z,53.23
2022-11-29T10:50:19.485Z,58.33
2022-11-29T10:52:47.206Z,54.47
2022-11-29T10:55:17.338Z,54.87
2022-11-29T10:58:15.695Z,55.57
2022-11-29T11:00:46.040Z,60.13
2022-11-29T11:03:17.896Z,56.37
2022-11-29T11:05:58.825Z,52.90
2022-11-29T11:08:27.463Z,53.20
2022-11-29T11:11:01.210Z,52.40
2022-11-29T11:13:32.795Z,56.83
2022-11-29T11:16:10.322Z,56.97
2022-11-29T11:18:39.051Z,54.80
2022-11-29T11:21:10.301Z,56.50
2022-11-29T11:23:43.524Z,53.13
2022-11-29T11:26:13.942Z,54.97
2022-11-29T11:28:50.257Z,52.23
2022-11-29T11:31:32.301Z,53.90
2022-11-29T11:34:24.751Z,48.17
2022-11-29T11:36:52.688Z,50.97
2022-11-29T11:39:22.582Z,50.87
2022-11-29T11:42:10.209Z,48.93
2022-11-29T11:44:49.583Z,50.83
2022-11-29T11:47:20.382Z,51.00
2022-11-29T11:49:51.010Z,47.00
2022-11-29T11:52:23.058Z,52.17
2022-11-29T11:54:55.927Z,49.90
2022-11-29T11:57:26.034Z,49.60
2022-11-29T12:00:02.035Z,55.40
2022-11-29T12:02:39.816Z,50.93
2022-11-29T12:05:14.620Z,46.23
2022-11-29T12:08:13.575Z,53.77
2022-11-29T12:10:36.691Z,48.63
2022-11-29T12:13:06.006Z,47.70
2022-11-29T12:15:39.458Z,49.77
2022-11-29T12:18:12.551Z,47.07
2022-11-29T12:20:45.255Z,45.73
2022-11-29T12:23:24.625Z,49.87
2022-11-29T12:25:57.159Z,50.40
2022-11-29T12:28:28.914Z,51.17
2022-11-29T12:31:04.389Z,49.63
2022-11-29T12:33:42.011Z,54.33
2022-11-29T12:36:24.293Z,52.40
2022-11-29T12:39:04.786Z,49.17
2022-11-29T12:41:43.607Z,48.27
2022-11-29T12:44:19.576Z,51.33
2022-11-29T12:47:02.111Z,48.13
2022-11-29T12:49:53.913Z,52.20
2022-11-29T12:52:28.104Z,49.70
2022-11-29T12:55:08.014Z,49.57
2022-11-29T12:57:47.894Z,55.00
2022-11-29T13:00:17.469Z,48.43
2022-11-29T13:02:57.708Z,52.97
2022-11-29T13:05:35.480Z,53.50
2022-11-29T13:08:20.460Z,51.80
2022-11-29T13:11:04.714Z,50.83
2022-11-29T13:13:40.549Z,44.53
2022-11-29T13:16:26.300Z,51.47
2022-11-29T13:19:03.829Z,52.00
2022-11-29T13:21:41.452Z,48.37
2022-11-29T13:24:15.434Z,48.63
2022-11-29T13:26:44.543Z,54.73
2022-11-29T13:29:16.677Z,51.07
2022-11-29T13:31:45.682Z,49.57
2022-11-29T13:34:20.710Z,53.83
2022-11-29T13:36:58.945Z,52.67
2022-11-29T13:39:41.996Z,51.17
2022-11-29T13:42:17.891Z,56.43
2022-11-29T13:44:50.674Z,52.40
2022-11-29T13:47:20.023Z,53.10
2022-11-29T13:49:55.142Z,50.93
2022-11-29T13:52:39.818Z,52.77
2022-11-29T13:55:18.465Z,52.43
2022-11-29T13:58:15.676Z,51.57
2022-11-29T14:00:50.640Z,50.37
2022-11-29T14:03:42.948Z,51.37
2022-11-29T14:06:18.368Z,48.80
2022-11-29T14:09:18.423Z,63.23
2022-11-29T14:11:50.132Z,50.77
2022-11-29T14:14:26.928Z,52.67
2022-11-29T14:16:59.288Z,50.33
2022-11-29T14:19:33.329Z,52.60
2022-11-29T14:22:23.987Z,52.23
2022-11-29T14:25:49.662Z,54.33
2022-11-29T14:28:30.342Z,48.23
2022-11-29T14:31:01.514Z,58.40
2022-11-29T14:33:39.268Z,57.63
2022-11-29T14:36:33.228Z,54.13
2022-11-29T14:39:15.720Z,54.00
2022-11-29T14:41:55.186Z,57.03
2022-11-29T14:44:26.031Z,59.23
2022-11-29T14:47:02.837Z,56.50
2022-11-29T14:49:32.879Z,51.20
2022-11-29T14:52:10.250Z,53.97
2022-11-29T14:54:55.671Z,58.50
2022-11-29T14:58:06.986Z,51.63
2022-11-29T15:00:56.151Z,62.43
2022-11-29T15:03:31.780Z,54.77
2022-11-29T15:06:02.078Z,55.63
2022-11-29T15:08:36.494Z,58.30
2022-11-29T15:11:13.070Z,57.80
2022-11-29T15:13:49.724Z,54.83
2022-11-29T15:16:42.805Z,54.80
2022-11-29T15:19:43.554Z,54.57
2022-11-29T15:22:16.745Z,58.13
2022-11-29T15:24:53.082Z,54.07
2022-11-29T15:27:22.985Z,57.93
2022-11-29T15:29:52.340Z,56.30
2022-11-29T15:32:26.111Z,54.47
2022-11-29T15:34:55.477Z,59.20
2022-11-29T15:37:25.391Z,60.60
2022-11-29T15:40:03.947Z,59.90
2022-11-29T15:42:42.485Z,63.93
2022-11-29T15:45:33.143Z,82.83
2022-11-29T15:48:17.993Z,56.70
2022-11-29T15:50:51.862Z,59.70
2022-11-29T15:53:24.841Z,60.23
2022-11-29T15:55:57.632Z,65.27
2022-11-29T15:58:28.981Z,56.70
2022-11-29T16:00:58.945Z,59.63
2022-11-29T16:03:29.944Z,59.43
2022-11-29T16:06:04.454Z,58.20
2022-11-29T16:08:38.012Z,59.73
2022-11-29T16:11:06.986Z,58.87
2022-11-29T16:13:38.395Z,57.03
2022-11-29T16:16:10.757Z,60.60
2022-11-29T16:18:41.950Z,61.47
2022-11-29T16:21:24.092Z,55.90
2022-11-29T16:23:51.891Z,59.53
2022-11-29T16:26:22.904Z,66.37
2022-11-29T16:28:54.704Z,62.00
2022-11-29T16:31:24.348Z,65.30
2022-11-29T16:33:53.689Z,64.30
2022-11-29T16:36:24.483Z,70.70
2022-11-29T16:38:55.346Z,64.77
2022-11-29T16:41:25.656Z,65.13
2022-11-29T16:43:57.493Z,61.13
2022-11-29T16:46:32.344Z,57.33
2022-11-29T16:49:02.512Z,55.50
2022-11-29T16:51:38.696Z,60.53
2022-11-29T16:54:23.961Z,62.53
2022-11-29T16:56:52.761Z,67.03
2022-11-29T16:59:27.471Z,58.60
2022-11-29T17:01:56.669Z,61.43
2022-11-29T17:04:25.307Z,62.50
2022-11-29T17:06:54.020Z,57.53
2022-11-29T17:09:25.389Z,62.77
2022-11-29T17:11:53.334Z,53.43
2022-11-29T17:14:22.385Z,56.07
2022-11-29T17:16:50.478Z,54.10
2022-11-29T17:19:19.422Z,53.57
2022-11-29T17:21:47.513Z,61.83
2022-11-29T17:24:17.149Z,53.07
2022-11-29T17:26:46.212Z,51.70
2022-11-29T17:29:15.613Z,56.53
2022-11-29T17:31:46.366Z,55.47
2022-11-29T17:34:14.448Z,51.67
2022-11-29T17:36:42.573Z,53.00
2022-11-29T17:39:10.329Z,53.60
2022-11-29T17:41:38.174Z,56.77
2022-11-29T17:44:06.288Z,53.27
2022-11-29T17:46:35.873Z,53.30
2022-11-29T17:49:07.297Z,53.87
2022-11-29T17:51:53.740Z,55.07
2022-11-29T17:54:22.183Z,53.40
2022-11-29T17:56:50.307Z,52.27
2022-11-29T17:59:18.025Z,61.00
2022-11-29T18:01:47.037Z,59.73
2022-11-29T18:04:16.427Z,56.23
2022-11-29T18:06:49.776Z,61.07
2022-11-29T18:09:19.545Z,54.77
2022-11-29T18:11:49.913Z,57.03
2022-11-29T18:14:20.229Z,56.27
2022-11-29T18:16:48.100Z,59.23
2022-11-29T18:19:19.459Z,62.17
2022-11-29T18:21:47.373Z,59.83
2022-11-29T18:24:15.098Z,62.77
2022-11-29T18:26:43.278Z,62.40
2022-11-29T18:29:11.326Z,59.47
2022-11-29T18:31:41.012Z,64.27
2022-11-29T18:34:10.625Z,60.50
2022-11-29T18:36:45.847Z,66.87
2022-11-29T18:39:15.324Z,62.13
2022-11-29T18:41:45.234Z,59.17
2022-11-29T18:44:15.183Z,69.43
2022-11-29T18:46:44.662Z,57.60
2022-11-29T18:49:14.270Z,58.47
2022-11-29T18:51:45.803Z,58.33
2022-11-29T18:54:14.238Z,59.73
2022-11-29T18:56:42.828Z,57.20
2022-11-29T18:59:12.362Z,63.20
2022-11-29T19:01:42.535Z,64.60
2022-11-29T19:04:12.526Z,63.37
2022-11-29T19:06:40.521Z,62.10
2022-11-29T19:09:13.246Z,58.23
2022-11-29T19:11:41.243Z,59.10
2022-11-29T19:14:12.546Z,58.10
2022-11-29T19:16:42.080Z,60.47
2022-11-29T19:19:09.937Z,58.30
2022-11-29T19:21:39.626Z,59.83
2022-11-29T19:24:15.117Z,56.37
2022-11-29T19:26:45.342Z,63.77
2022-11-29T19:29:13.860Z,59.83
2022-11-29T19:31:42.560Z,62.67
2022-11-29T19:34:10.461Z,66.07
2022-11-29T19:36:42.822Z,59.67
2022-11-29T19:39:13.534Z,62.23
2022-11-29T19:41:44.009Z,62.57
2022-11-29T19:44:12.568Z,59.37
2022-11-29T19:46:41.839Z,61.43
2022-11-29T19:49:10.305Z,56.00
2022-11-29T19:51:38.511Z,61.67
2022-11-29T19:54:07.690Z,64.77
2022-11-29T19:56:37.021Z,63.67
2022-11-29T19:59:04.766Z,58.63
2022-11-29T20:01:40.171Z,65.33
2022-11-29T20:04:08.960Z,64.20
2022-11-29T20:06:37.151Z,57.73
2022-11-29T20:09:06.383Z,63.47
2022-11-29T20:11:34.197Z,59.70
2022-11-29T20:14:05.159Z,60.53
2022-11-29T20:16:33.565Z,60.23
2022-11-29T20:19:01.723Z,65.37
2022-11-29T20:21:31.465Z,61.13
2022-11-29T20:24:00.611Z,61.23
2022-11-29T20:26:29.400Z,62.70
2022-11-29T20:28:57.111Z,63.80
2022-11-29T20:31:26.290Z,67.33
2022-11-29T20:33:57.263Z,62.10
2022-11-29T20:36:45.264Z,64.63
2022-11-29T20:39:25.639Z,66.10
2022-11-29T20:42:07.103Z,61.57
2022-11-29T20:44:38.898Z,66.30
2022-11-29T20:47:15.350Z,64.13
2022-11-29T20:49:43.528Z,59.67
2022-11-29T20:52:19.036Z,66.73
2022-11-29T20:54:46.780Z,66.23
2022-11-29T20:57:14.555Z,66.50
2022-11-29T20:59:42.309Z,64.37
2022-11-29T21:02:10.129Z,63.27
2022-11-29T21:04:39.556Z,66.97
2022-11-29T21:07:07.378Z,66.43
2022-11-29T21:09:35.104Z,60.43
2022-11-29T21:12:03.262Z,64.33
2022-11-29T21:14:31.588Z,65.10
2022-11-29T21:16:59.876Z,63.00
2022-11-29T21:19:28.129Z,63.50
2022-11-29T21:22:05.948Z,66.20
2022-11-29T21:24:42.573Z,68.73
2022-11-29T21:27:15.111Z,66.27
2022-11-29T21:29:43.395Z,63.20
2022-11-29T21:32:21.592Z,62.77
2022-11-29T21:34:49.323Z,66.40
2022-11-29T21:37:21.527Z,62.77
2022-11-29T21:39:51.651Z,63.50
2022-11-29T21:42:19.734Z,66.13
2022-11-29T21:44:47.766Z,69.07
2022-11-29T21:47:18.449Z,61.83
2022-11-29T21:49:46.758Z,62.77
2022-11-29T21:52:20.703Z,59.97
2022-11-29T21:54:51.724Z,72.47
2022-11-29T21:57:19.445Z,66.80
2022-11-29T21:59:47.180Z,68.70
2022-11-29T22:02:15.058Z,68.50
2022-11-29T22:04:42.989Z,60.93
2022-11-29T22:07:10.838Z,65.70
2022-11-29T22:09:38.556Z,63.07
2022-11-29T22:12:31.951Z,60.43
2022-11-29T22:14:58.523Z,65.23
2022-11-29T22:17:26.260Z,68.37
2022-11-29T22:19:53.976Z,65.93
2022-11-29T22:22:21.699Z,64.27
2022-11-29T22:24:49.721Z,70.33
2022-11-29T22:27:21.590Z,62.67
2022-11-29T22:29:49.344Z,63.00
2022-11-29T22:32:17.172Z,60.50
2022-11-29T22:34:45.163Z,65.43
2022-11-29T22:37:13.284Z,63.37
2022-11-29T22:39:41.032Z,60.43
2022-11-29T22:42:08.749Z,61.50
2022-11-29T22:44:37.810Z,60.97
2022-11-29T22:47:05.649Z,59.83
2022-11-29T22:49:33.422Z,67.53
2022-11-29T22:52:01.359Z,63.77
2022-11-29T22:54:29.123Z,64.10
2022-11-29T22:56:56.833Z,66.87
2022-11-29T22:59:24.535Z,68.77
2022-11-29T23:01:53.714Z,59.57
2022-11-29T23:04:21.420Z,66.93
2022-11-29T23:06:49.148Z,63.97
2022-11-29T23:09:21.220Z,65.97
2022-11-29T23:11:52.139Z,64.77
2022-11-29T23:14:20.370Z,65.87
2022-11-29T23:16:48.161Z,58.27
2022-11-29T23:19:17.584Z,56.83
2022-11-29T23:21:46.246Z,61.50
2022-11-29T23:24:14.580Z,58.07
2022-11-29T23:26:45.502Z,62.47
2022-11-29T23:29:14.881Z,63.93
2022-11-29T23:31:45.233Z,66.23
2022-11-29T23:34:13.132Z,67.80
2022-11-29T23:36:43.954Z,64.87
2022-11-29T23:39:13.500Z,63.40
2022-11-29T23:41:41.271Z,62.50
2022-11-29T23:44:11.028Z,65.53
2022-11-29T23:46:38.787Z,67.03
2022-11-29T23:49:06.517Z,62.20
2022-11-29T23:51:34.241Z,67.03
2022-11-29T23:54:03.307Z,65.37
2022-11-29T23:56:35.180Z,62.40
2022-11-29T23:59:03.059Z,74.50
